sensor_id;sensor_type;location;lat;lon;timestamp;P1;durP1;ratioP1;P2;durP2;ratioP2
10029;SDS011;5055;52.054;8.524;2023-04-07T00:01:47;0.30;;;0.30;;
10029;SDS011;5055;52.054;8.524;2023-04-07T00:04:15;0.40;;;0.40;;
10029;SDS011;5055;52.054;8.524;2023-04-07T00:06:43;0.30;;;0.30;;
10029;SDS011;5055;52.054;8.524;2023-04-07T00:09:11;0.30;;;0.30;;
10029;SDS011;5055;52.054;8.524;2023-04-07T00:11:39;0.30;;;0.30;;
10029;SDS011;5055;52.054;8.524;2023-04-07T00:14:07;0.30;;;0.30;;
10029;SDS011;5055;52.054;8.524;2023-04-07T00:16:37;0.30;;;0.30;;
10029;SDS011;5055;52.054;8.524;2023-04-07T00:19:05;0.30;;;0.30;;
10029;SDS011;5055;52.054;8.524;2023-04-07T00:21:34;0.30;;;0.30;;
10029;SDS011;5055;52.054;8.524;2023-04-07T00:24:02;0.30;;;0.30;;
10029;SDS011;5055;52.054;8.524;2023-04-07T00:26:30;0.40;;;0.40;;
10029;SDS011;5055;52.054;8.524;2023-04-07T00:28:58;0.30;;;0.30;;
10029;SDS011;5055;52.054;8.524;2023-04-07T00:31:27;0.30;;;0.30;;
10029;SDS011;5055;52.054;8.524;2023-04-07T00:33:56;0.30;;;0.30;;
10029;SDS011;5055;52.054;8.524;2023-04-07T00:36:24;0.30;;;0.30;;
10029;SDS011;5055;52.054;8.524;2023-04-07T00:38:53;0.30;;;0.30;;
10029;SDS011;5055;52.054;8.524;2023-04-07T00:41:21;0.40;;;0.40;;
10029;SDS011;5055;52.054;8.524;2023-04-07T00:43:50;0.30;;;0.30;;
10029;SDS011;5055;52.054;8.524;2023-04-07T00:46:18;0.30;;;0.30;;
10029;SDS011;5055;52.054;8.524;2023-04-07T00:48:49;0.30;;;0.30;;
10029;SDS011;5055;52.054;8.524;2023-04-07T00:51:18;0.40;;;0.40;;
10029;SDS011;5055;52.054;8.524;2023-04-07T00:53:47;0.30;;;0.30;;
10029;SDS011;5055;52.054;8.524;2023-04-07T00:56:16;0.30;;;0.30;;
10029;SDS011;5055;52.054;8.524;2023-04-07T00:58:44;0.30;;;0.30;;
10029;SDS011;5055;52.054;8.524;2023-04-07T01:01:14;0.40;;;0.40;;
10029;SDS011;5055;52.054;8.524;2023-04-07T01:03:48;0.30;;;0.30;;
10029;SDS011;5055;52.054;8.524;2023-04-07T01:06:23;0.30;;;0.30;;
10029;SDS011;5055;52.054;8.524;2023-04-07T01:08:56;0.40;;;0.40;;
10029;SDS011;5055;52.054;8.524;2023-04-07T01:11:31;0.30;;;0.30;;
10029;SDS011;5055;52.054;8.524;2023-04-07T01:14:04;0.30;;;0.30;;
10029;SDS011;5055;52.054;8.524;2023-04-07T01:16:34;0.40;;;0.40;;
10029;SDS011;5055;52.054;8.524;2023-04-07T01:19:08;0.40;;;0.40;;
10029;SDS011;5055;52.054;8.524;2023-04-07T01:21:43;0.40;;;0.40;;
10029;SDS011;5055;52.054;8.524;2023-04-07T01:24:21;0.40;;;0.40;;
10029;SDS011;5055;52.054;8.524;2023-04-07T01:27:04;0.40;;;0.40;;
10029;SDS011;5055;52.054;8.524;2023-04-07T01:29:42;0.40;;;0.40;;
10029;SDS011;5055;52.054;8.524;2023-04-07T01:32:13;0.30;;;0.30;;
10029;SDS011;5055;52.054;8.524;2023-04-07T01:34:43;0.40;;;0.40;;
10029;SDS011;5055;52.054;8.524;2023-04-07T01:37:14;0.40;;;0.40;;
10029;SDS011;5055;52.054;8.524;2023-04-07T01:39:43;0.40;;;0.40;;
10029;SDS011;5055;52.054;8.524;2023-04-07T01:42:11;0.30;;;0.30;;
10029;SDS011;5055;52.054;8.524;2023-04-07T01:44:42;0.40;;;0.40;;
10029;SDS011;5055;52.054;8.524;2023-04-07T01:47:10;0.30;;;0.30;;
10029;SDS011;5055;52.054;8.524;2023-04-07T01:49:39;0.30;;;0.30;;
10029;SDS011;5055;52.054;8.524;2023-04-07T01:52:08;0.33;;;0.33;;
10029;SDS011;5055;52.054;8.524;2023-04-07T01:54:36;0.20;;;0.20;;
10029;SDS011;5055;52.054;8.524;2023-04-07T01:57:06;0.40;;;0.40;;
10029;SDS011;5055;52.054;8.524;2023-04-07T01:59:34;0.40;;;0.40;;
10029;SDS011;5055;52.054;8.524;2023-04-07T02:02:03;0.30;;;0.30;;
10029;SDS011;5055;52.054;8.524;2023-04-07T02:04:34;0.40;;;0.40;;
10029;SDS011;5055;52.054;8.524;2023-04-07T02:07:05;0.30;;;0.30;;
10029;SDS011;5055;52.054;8.524;2023-04-07T02:09:36;0.33;;;0.33;;
10029;SDS011;5055;52.054;8.524;2023-04-07T02:12:07;0.30;;;0.30;;
10029;SDS011;5055;52.054;8.524;2023-04-07T02:14:37;0.40;;;0.40;;
10029;SDS011;5055;52.054;8.524;2023-04-07T02:17:08;0.30;;;0.30;;
10029;SDS011;5055;52.054;8.524;2023-04-07T02:19:36;0.30;;;0.30;;
10029;SDS011;5055;52.054;8.524;2023-04-07T02:22:05;0.30;;;0.30;;
10029;SDS011;5055;52.054;8.524;2023-04-07T02:24:34;0.30;;;0.30;;
10029;SDS011;5055;52.054;8.524;2023-04-07T02:27:02;0.40;;;0.40;;
10029;SDS011;5055;52.054;8.524;2023-04-07T02:29:30;0.40;;;0.40;;
10029;SDS011;5055;52.054;8.524;2023-04-07T02:31:58;0.40;;;0.40;;
10029;SDS011;5055;52.054;8.524;2023-04-07T02:34:28;0.50;;;0.50;;
10029;SDS011;5055;52.054;8.524;2023-04-07T02:36:56;0.30;;;0.30;;
10029;SDS011;5055;52.054;8.524;2023-04-07T02:39:24;0.40;;;0.40;;
10029;SDS011;5055;52.054;8.524;2023-04-07T02:41:55;0.40;;;0.40;;
10029;SDS011;5055;52.054;8.524;2023-04-07T02:44:23;0.40;;;0.40;;
10029;SDS011;5055;52.054;8.524;2023-04-07T02:46:54;0.40;;;0.40;;
10029;SDS011;5055;52.054;8.524;2023-04-07T02:49:22;0.40;;;0.40;;
10029;SDS011;5055;52.054;8.524;2023-04-07T02:51:51;0.30;;;0.30;;
10029;SDS011;5055;52.054;8.524;2023-04-07T02:54:20;0.23;;;0.23;;
10029;SDS011;5055;52.054;8.524;2023-04-07T02:56:48;0.30;;;0.30;;
10029;SDS011;5055;52.054;8.524;2023-04-07T02:59:18;0.40;;;0.40;;
10029;SDS011;5055;52.054;8.524;2023-04-07T03:01:46;0.40;;;0.40;;
10029;SDS011;5055;52.054;8.524;2023-04-07T03:04:14;0.40;;;0.40;;
10029;SDS011;5055;52.054;8.524;2023-04-07T03:06:42;0.40;;;0.40;;
10029;SDS011;5055;52.054;8.524;2023-04-07T03:09:12;0.40;;;0.40;;
10029;SDS011;5055;52.054;8.524;2023-04-07T03:11:43;0.40;;;0.40;;
10029;SDS011;5055;52.054;8.524;2023-04-07T03:14:11;0.40;;;0.40;;
10029;SDS011;5055;52.054;8.524;2023-04-07T03:16:39;0.40;;;0.40;;
10029;SDS011;5055;52.054;8.524;2023-04-07T03:19:07;0.40;;;0.40;;
10029;SDS011;5055;52.054;8.524;2023-04-07T03:21:36;0.30;;;0.30;;
10029;SDS011;5055;52.054;8.524;2023-04-07T03:24:05;0.30;;;0.30;;
10029;SDS011;5055;52.054;8.524;2023-04-07T03:26:35;0.40;;;0.40;;
10029;SDS011;5055;52.054;8.524;2023-04-07T03:29:03;0.33;;;0.33;;
10029;SDS011;5055;52.054;8.524;2023-04-07T03:31:31;0.30;;;0.30;;
10029;SDS011;5055;52.054;8.524;2023-04-07T03:33:59;0.30;;;0.30;;
10029;SDS011;5055;52.054;8.524;2023-04-07T03:36:27;0.30;;;0.30;;
10029;SDS011;5055;52.054;8.524;2023-04-07T03:38:56;0.30;;;0.30;;
10029;SDS011;5055;52.054;8.524;2023-04-07T03:41:25;0.30;;;0.30;;
10029;SDS011;5055;52.054;8.524;2023-04-07T03:43:54;0.40;;;0.40;;
10029;SDS011;5055;52.054;8.524;2023-04-07T03:46:22;0.40;;;0.40;;
10029;SDS011;5055;52.054;8.524;2023-04-07T03:48:52;0.40;;;0.40;;
10029;SDS011;5055;52.054;8.524;2023-04-07T03:51:20;0.50;;;0.50;;
10029;SDS011;5055;52.054;8.524;2023-04-07T03:53:50;0.30;;;0.30;;
10029;SDS011;5055;52.054;8.524;2023-04-07T03:56:19;0.30;;;0.30;;
10029;SDS011;5055;52.054;8.524;2023-04-07T03:58:47;0.40;;;0.40;;
10029;SDS011;5055;52.054;8.524;2023-04-07T04:01:17;0.40;;;0.40;;
10029;SDS011;5055;52.054;8.524;2023-04-07T04:03:45;0.30;;;0.30;;
10029;SDS011;5055;52.054;8.524;2023-04-07T04:06:13;0.30;;;0.30;;
10029;SDS011;5055;52.054;8.524;2023-04-07T04:08:41;0.30;;;0.30;;
10029;SDS011;5055;52.054;8.524;2023-04-07T04:11:09;0.40;;;0.40;;
10029;SDS011;5055;52.054;8.524;2023-04-07T04:13:38;0.40;;;0.40;;
10029;SDS011;5055;52.054;8.524;2023-04-07T04:16:06;0.30;;;0.30;;
10029;SDS011;5055;52.054;8.524;2023-04-07T04:18:36;0.37;;;0.37;;
10029;SDS011;5055;52.054;8.524;2023-04-07T04:21:04;0.30;;;0.30;;
10029;SDS011;5055;52.054;8.524;2023-04-07T04:23:33;0.30;;;0.30;;
10029;SDS011;5055;52.054;8.524;2023-04-07T04:26:01;0.30;;;0.30;;
10029;SDS011;5055;52.054;8.524;2023-04-07T04:28:29;0.30;;;0.30;;
10029;SDS011;5055;52.054;8.524;2023-04-07T04:30:57;0.30;;;0.30;;
10029;SDS011;5055;52.054;8.524;2023-04-07T04:33:25;0.40;;;0.40;;
10029;SDS011;5055;52.054;8.524;2023-04-07T04:35:55;0.40;;;0.40;;
10029;SDS011;5055;52.054;8.524;2023-04-07T04:38:23;0.33;;;0.33;;
10029;SDS011;5055;52.054;8.524;2023-04-07T04:40:51;0.20;;;0.20;;
10029;SDS011;5055;52.054;8.524;2023-04-07T04:43:19;0.30;;;0.30;;
10029;SDS011;5055;52.054;8.524;2023-04-07T04:45:47;0.30;;;0.30;;
10029;SDS011;5055;52.054;8.524;2023-04-07T04:48:15;0.40;;;0.40;;
10029;SDS011;5055;52.054;8.524;2023-04-07T04:50:43;0.30;;;0.30;;
10029;SDS011;5055;52.054;8.524;2023-04-07T04:53:12;0.30;;;0.30;;
10029;SDS011;5055;52.054;8.524;2023-04-07T04:55:41;0.40;;;0.40;;
10029;SDS011;5055;52.054;8.524;2023-04-07T04:58:12;0.30;;;0.30;;
10029;SDS011;5055;52.054;8.524;2023-04-07T05:00:40;0.30;;;0.30;;
10029;SDS011;5055;52.054;8.524;2023-04-07T05:03:08;0.50;;;0.50;;
10029;SDS011;5055;52.054;8.524;2023-04-07T05:05:37;0.30;;;0.30;;
10029;SDS011;5055;52.054;8.524;2023-04-07T05:08:05;0.40;;;0.40;;
10029;SDS011;5055;52.054;8.524;2023-04-07T05:10:38;0.40;;;0.40;;
10029;SDS011;5055;52.054;8.524;2023-04-07T05:13:06;0.50;;;0.50;;
10029;SDS011;5055;52.054;8.524;2023-04-07T05:15:34;0.40;;;0.40;;
10029;SDS011;5055;52.054;8.524;2023-04-07T05:18:02;0.40;;;0.40;;
10029;SDS011;5055;52.054;8.524;2023-04-07T05:20:30;0.40;;;0.40;;
10029;SDS011;5055;52.054;8.524;2023-04-07T05:22:59;0.40;;;0.40;;
10029;SDS011;5055;52.054;8.524;2023-04-07T05:25:27;0.30;;;0.30;;
10029;SDS011;5055;52.054;8.524;2023-04-07T05:27:56;0.40;;;0.40;;
10029;SDS011;5055;52.054;8.524;2023-04-07T05:30:25;0.30;;;0.30;;
10029;SDS011;5055;52.054;8.524;2023-04-07T05:32:53;0.40;;;0.40;;
10029;SDS011;5055;52.054;8.524;2023-04-07T05:35:21;0.40;;;0.40;;
10029;SDS011;5055;52.054;8.524;2023-04-07T05:37:49;0.30;;;0.30;;
10029;SDS011;5055;52.054;8.524;2023-04-07T05:40:17;0.30;;;0.30;;
10029;SDS011;5055;52.054;8.524;2023-04-07T05:42:45;0.30;;;0.30;;
10029;SDS011;5055;52.054;8.524;2023-04-07T05:45:15;0.30;;;0.30;;
10029;SDS011;5055;52.054;8.524;2023-04-07T05:47:43;0.30;;;0.30;;
10029;SDS011;5055;52.054;8.524;2023-04-07T05:50:12;0.40;;;0.40;;
10029;SDS011;5055;52.054;8.524;2023-04-07T05:52:40;0.30;;;0.30;;
10029;SDS011;5055;52.054;8.524;2023-04-07T05:55:11;0.37;;;0.37;;
10029;SDS011;5055;52.054;8.524;2023-04-07T05:57:39;0.40;;;0.40;;
10029;SDS011;5055;52.054;8.524;2023-04-07T06:00:08;0.40;;;0.40;;
10029;SDS011;5055;52.054;8.524;2023-04-07T06:02:38;0.43;;;0.43;;
10029;SDS011;5055;52.054;8.524;2023-04-07T06:05:07;0.30;;;0.30;;
10029;SDS011;5055;52.054;8.524;2023-04-07T06:07:35;0.30;;;0.30;;
10029;SDS011;5055;52.054;8.524;2023-04-07T06:10:03;0.30;;;0.30;;
10029;SDS011;5055;52.054;8.524;2023-04-07T06:12:32;0.30;;;0.30;;
10029;SDS011;5055;52.054;8.524;2023-04-07T06:15:00;0.30;;;0.30;;
10029;SDS011;5055;52.054;8.524;2023-04-07T06:17:28;0.40;;;0.40;;
10029;SDS011;5055;52.054;8.524;2023-04-07T06:19:57;0.40;;;0.40;;
10029;SDS011;5055;52.054;8.524;2023-04-07T06:22:26;0.40;;;0.40;;
10029;SDS011;5055;52.054;8.524;2023-04-07T06:24:54;0.40;;;0.40;;
10029;SDS011;5055;52.054;8.524;2023-04-07T06:27:22;0.40;;;0.40;;
10029;SDS011;5055;52.054;8.524;2023-04-07T06:29:50;0.30;;;0.30;;
10029;SDS011;5055;52.054;8.524;2023-04-07T06:32:18;0.40;;;0.40;;
10029;SDS011;5055;52.054;8.524;2023-04-07T06:34:46;0.30;;;0.30;;
10029;SDS011;5055;52.054;8.524;2023-04-07T06:37:16;0.40;;;0.40;;
10029;SDS011;5055;52.054;8.524;2023-04-07T06:39:44;0.40;;;0.40;;
10029;SDS011;5055;52.054;8.524;2023-04-07T06:42:12;0.40;;;0.40;;
10029;SDS011;5055;52.054;8.524;2023-04-07T06:44:40;0.30;;;0.30;;
10029;SDS011;5055;52.054;8.524;2023-04-07T06:47:08;0.37;;;0.37;;
10029;SDS011;5055;52.054;8.524;2023-04-07T06:49:36;0.40;;;0.40;;
10029;SDS011;5055;52.054;8.524;2023-04-07T06:52:04;0.40;;;0.40;;
10029;SDS011;5055;52.054;8.524;2023-04-07T06:54:34;0.30;;;0.30;;
10029;SDS011;5055;52.054;8.524;2023-04-07T06:57:02;0.40;;;0.40;;
10029;SDS011;5055;52.054;8.524;2023-04-07T06:59:32;0.30;;;0.30;;
10029;SDS011;5055;52.054;8.524;2023-04-07T07:02:00;0.50;;;0.50;;
10029;SDS011;5055;52.054;8.524;2023-04-07T07:04:28;0.30;;;0.30;;
10029;SDS011;5055;52.054;8.524;2023-04-07T07:06:56;0.30;;;0.30;;
10029;SDS011;5055;52.054;8.524;2023-04-07T07:09:25;0.40;;;0.40;;
10029;SDS011;5055;52.054;8.524;2023-04-07T07:11:54;0.50;;;0.50;;
10029;SDS011;5055;52.054;8.524;2023-04-07T07:14:23;0.40;;;0.40;;
10029;SDS011;5055;52.054;8.524;2023-04-07T07:16:51;0.30;;;0.30;;
10029;SDS011;5055;52.054;8.524;2023-04-07T07:19:19;0.30;;;0.30;;
10029;SDS011;5055;52.054;8.524;2023-04-07T07:21:47;0.40;;;0.40;;
10029;SDS011;5055;52.054;8.524;2023-04-07T07:24:15;0.40;;;0.40;;
10029;SDS011;5055;52.054;8.524;2023-04-07T07:26:43;0.30;;;0.30;;
10029;SDS011;5055;52.054;8.524;2023-04-07T07:29:12;0.40;;;0.40;;
10029;SDS011;5055;52.054;8.524;2023-04-07T07:31:40;0.40;;;0.40;;
10029;SDS011;5055;52.054;8.524;2023-04-07T07:34:09;0.30;;;0.30;;
10029;SDS011;5055;52.054;8.524;2023-04-07T07:36:37;0.30;;;0.30;;
10029;SDS011;5055;52.054;8.524;2023-04-07T07:39:05;0.37;;;0.37;;
10029;SDS011;5055;52.054;8.524;2023-04-07T07:41:33;0.40;;;0.40;;
10029;SDS011;5055;52.054;8.524;2023-04-07T07:44:01;0.40;;;0.40;;
10029;SDS011;5055;52.054;8.524;2023-04-07T07:46:31;0.37;;;0.37;;
10029;SDS011;5055;52.054;8.524;2023-04-07T07:48:59;0.30;;;0.30;;
10029;SDS011;5055;52.054;8.524;2023-04-07T07:51:27;0.30;;;0.30;;
10029;SDS011;5055;52.054;8.524;2023-04-07T07:53:55;0.30;;;0.30;;
10029;SDS011;5055;52.054;8.524;2023-04-07T07:56:24;0.30;;;0.30;;
10029;SDS011;5055;52.054;8.524;2023-04-07T07:58:52;0.20;;;0.20;;
10029;SDS011;5055;52.054;8.524;2023-04-07T08:01:22;0.30;;;0.30;;
10029;SDS011;5055;52.054;8.524;2023-04-07T08:03:51;0.30;;;0.30;;
10029;SDS011;5055;52.054;8.524;2023-04-07T08:06:20;0.40;;;0.40;;
10029;SDS011;5055;52.054;8.524;2023-04-07T08:08:51;0.30;;;0.30;;
10029;SDS011;5055;52.054;8.524;2023-04-07T08:11:20;0.40;;;0.40;;
10029;SDS011;5055;52.054;8.524;2023-04-07T08:13:48;0.30;;;0.30;;
10029;SDS011;5055;52.054;8.524;2023-04-07T08:16:16;0.40;;;0.40;;
10029;SDS011;5055;52.054;8.524;2023-04-07T08:18:44;0.33;;;0.33;;
10029;SDS011;5055;52.054;8.524;2023-04-07T08:21:14;0.30;;;0.30;;
10029;SDS011;5055;52.054;8.524;2023-04-07T08:23:42;0.30;;;0.30;;
10029;SDS011;5055;52.054;8.524;2023-04-07T08:26:11;0.30;;;0.30;;
10029;SDS011;5055;52.054;8.524;2023-04-07T08:28:40;0.30;;;0.30;;
10029;SDS011;5055;52.054;8.524;2023-04-07T08:31:08;0.30;;;0.30;;
10029;SDS011;5055;52.054;8.524;2023-04-07T08:33:36;0.20;;;0.20;;
10029;SDS011;5055;52.054;8.524;2023-04-07T08:36:04;0.30;;;0.30;;
10029;SDS011;5055;52.054;8.524;2023-04-07T08:38:34;0.37;;;0.37;;
10029;SDS011;5055;52.054;8.524;2023-04-07T08:41:03;0.30;;;0.30;;
10029;SDS011;5055;52.054;8.524;2023-04-07T08:43:34;0.30;;;0.30;;
10029;SDS011;5055;52.054;8.524;2023-04-07T08:46:03;0.30;;;0.30;;
10029;SDS011;5055;52.054;8.524;2023-04-07T08:48:32;0.30;;;0.30;;
10029;SDS011;5055;52.054;8.524;2023-04-07T08:51:02;0.30;;;0.30;;
10029;SDS011;5055;52.054;8.524;2023-04-07T08:53:33;0.30;;;0.30;;
10029;SDS011;5055;52.054;8.524;2023-04-07T08:56:07;0.30;;;0.30;;
10029;SDS011;5055;52.054;8.524;2023-04-07T08:58:37;0.30;;;0.30;;
10029;SDS011;5055;52.054;8.524;2023-04-07T09:01:06;0.30;;;0.30;;
10029;SDS011;5055;52.054;8.524;2023-04-07T09:03:36;0.40;;;0.40;;
10029;SDS011;5055;52.054;8.524;2023-04-07T09:06:05;0.30;;;0.30;;
10029;SDS011;5055;52.054;8.524;2023-04-07T09:08:33;0.30;;;0.30;;
10029;SDS011;5055;52.054;8.524;2023-04-07T09:11:03;0.30;;;0.30;;
10029;SDS011;5055;52.054;8.524;2023-04-07T09:13:31;0.40;;;0.40;;
10029;SDS011;5055;52.054;8.524;2023-04-07T09:16:00;0.30;;;0.30;;
10029;SDS011;5055;52.054;8.524;2023-04-07T09:18:30;0.30;;;0.30;;
10029;SDS011;5055;52.054;8.524;2023-04-07T09:21:02;0.20;;;0.20;;
10029;SDS011;5055;52.054;8.524;2023-04-07T09:23:39;0.30;;;0.30;;
10029;SDS011;5055;52.054;8.524;2023-04-07T09:26:18;0.30;;;0.30;;
10029;SDS011;5055;52.054;8.524;2023-04-07T09:28:52;0.30;;;0.30;;
10029;SDS011;5055;52.054;8.524;2023-04-07T09:31:22;0.30;;;0.30;;
10029;SDS011;5055;52.054;8.524;2023-04-07T09:34:15;0.20;;;0.20;;
10029;SDS011;5055;52.054;8.524;2023-04-07T09:36:52;0.33;;;0.33;;
10029;SDS011;5055;52.054;8.524;2023-04-07T09:39:21;0.30;;;0.30;;
10029;SDS011;5055;52.054;8.524;2023-04-07T09:41:49;0.33;;;0.33;;
10029;SDS011;5055;52.054;8.524;2023-04-07T09:44:18;0.30;;;0.30;;
10029;SDS011;5055;52.054;8.524;2023-04-07T09:46:47;0.40;;;0.40;;
10029;SDS011;5055;52.054;8.524;2023-04-07T09:49:15;0.40;;;0.40;;
10029;SDS011;5055;52.054;8.524;2023-04-07T09:51:54;0.40;;;0.40;;
10029;SDS011;5055;52.054;8.524;2023-04-07T09:54:33;0.30;;;0.30;;
10029;SDS011;5055;52.054;8.524;2023-04-07T09:57:03;0.40;;;0.40;;
10029;SDS011;5055;52.054;8.524;2023-04-07T09:59:35;0.40;;;0.40;;
10029;SDS011;5055;52.054;8.524;2023-04-07T10:02:06;0.30;;;0.30;;
10029;SDS011;5055;52.054;8.524;2023-04-07T10:04:36;0.30;;;0.30;;
10029;SDS011;5055;52.054;8.524;2023-04-07T10:07:06;0.20;;;0.20;;
10029;SDS011;5055;52.054;8.524;2023-04-07T10:09:36;0.30;;;0.30;;
10029;SDS011;5055;52.054;8.524;2023-04-07T10:12:04;0.40;;;0.40;;
10029;SDS011;5055;52.054;8.524;2023-04-07T10:14:34;0.30;;;0.30;;
10029;SDS011;5055;52.054;8.524;2023-04-07T10:17:05;0.40;;;0.40;;
10029;SDS011;5055;52.054;8.524;2023-04-07T10:19:35;0.30;;;0.30;;
10029;SDS011;5055;52.054;8.524;2023-04-07T10:22:04;0.30;;;0.30;;
10029;SDS011;5055;52.054;8.524;2023-04-07T10:24:43;0.30;;;0.30;;
10029;SDS011;5055;52.054;8.524;2023-04-07T10:27:21;0.30;;;0.30;;
10029;SDS011;5055;52.054;8.524;2023-04-07T10:29:56;0.30;;;0.30;;
10029;SDS011;5055;52.054;8.524;2023-04-07T10:32:25;0.30;;;0.30;;
10029;SDS011;5055;52.054;8.524;2023-04-07T10:34:57;0.30;;;0.30;;
10029;SDS011;5055;52.054;8.524;2023-04-07T10:37:27;0.30;;;0.30;;
10029;SDS011;5055;52.054;8.524;2023-04-07T10:43:04;0.30;;;0.30;;
10029;SDS011;5055;52.054;8.524;2023-04-07T10:45:55;0.30;;;0.30;;
10029;SDS011;5055;52.054;8.524;2023-04-07T10:48:26;0.27;;;0.27;;
10029;SDS011;5055;52.054;8.524;2023-04-07T10:51:14;0.30;;;0.30;;
10029;SDS011;5055;52.054;8.524;2023-04-07T10:57:06;0.30;;;0.30;;
10029;SDS011;5055;52.054;8.524;2023-04-07T10:59:39;0.30;;;0.30;;
10029;SDS011;5055;52.054;8.524;2023-04-07T11:02:33;0.20;;;0.20;;
10029;SDS011;5055;52.054;8.524;2023-04-07T11:05:02;0.20;;;0.20;;
10029;SDS011;5055;52.054;8.524;2023-04-07T11:10:27;0.20;;;0.20;;
10029;SDS011;5055;52.054;8.524;2023-04-07T11:13:00;0.20;;;0.20;;
10029;SDS011;5055;52.054;8.524;2023-04-07T11:15:31;0.20;;;0.20;;
10029;SDS011;5055;52.054;8.524;2023-04-07T11:18:14;0.20;;;0.20;;
10029;SDS011;5055;52.054;8.524;2023-04-07T11:20:44;0.30;;;0.30;;
10029;SDS011;5055;52.054;8.524;2023-04-07T11:23:18;0.20;;;0.20;;
10029;SDS011;5055;52.054;8.524;2023-04-07T11:25:49;0.20;;;0.20;;
10029;SDS011;5055;52.054;8.524;2023-04-07T11:28:18;0.20;;;0.20;;
10029;SDS011;5055;52.054;8.524;2023-04-07T11:30:49;0.30;;;0.30;;
10029;SDS011;5055;52.054;8.524;2023-04-07T11:33:18;0.30;;;0.30;;
10029;SDS011;5055;52.054;8.524;2023-04-07T11:35:51;0.30;;;0.30;;
10029;SDS011;5055;52.054;8.524;2023-04-07T11:38:22;0.30;;;0.30;;
10029;SDS011;5055;52.054;8.524;2023-04-07T11:40:52;0.30;;;0.30;;
10029;SDS011;5055;52.054;8.524;2023-04-07T11:43:21;0.20;;;0.20;;
10029;SDS011;5055;52.054;8.524;2023-04-07T11:46:07;0.30;;;0.30;;
10029;SDS011;5055;52.054;8.524;2023-04-07T11:48:37;0.30;;;0.30;;
10029;SDS011;5055;52.054;8.524;2023-04-07T11:51:14;0.30;;;0.30;;
10029;SDS011;5055;52.054;8.524;2023-04-07T11:53:43;0.20;;;0.20;;
10029;SDS011;5055;52.054;8.524;2023-04-07T11:56:15;0.30;;;0.30;;
10029;SDS011;5055;52.054;8.524;2023-04-07T11:58:48;0.20;;;0.20;;
10029;SDS011;5055;52.054;8.524;2023-04-07T12:01:18;0.20;;;0.20;;
10029;SDS011;5055;52.054;8.524;2023-04-07T12:03:56;0.20;;;0.20;;
10029;SDS011;5055;52.054;8.524;2023-04-07T12:06:26;0.20;;;0.20;;
10029;SDS011;5055;52.054;8.524;2023-04-07T12:08:55;0.30;;;0.30;;
10029;SDS011;5055;52.054;8.524;2023-04-07T12:11:23;0.30;;;0.30;;
10029;SDS011;5055;52.054;8.524;2023-04-07T12:13:52;0.20;;;0.20;;
10029;SDS011;5055;52.054;8.524;2023-04-07T12:16:22;0.30;;;0.30;;
10029;SDS011;5055;52.054;8.524;2023-04-07T12:18:51;0.30;;;0.30;;
10029;SDS011;5055;52.054;8.524;2023-04-07T12:21:19;0.30;;;0.30;;
10029;SDS011;5055;52.054;8.524;2023-04-07T12:23:47;0.20;;;0.20;;
10029;SDS011;5055;52.054;8.524;2023-04-07T12:26:16;0.20;;;0.20;;
10029;SDS011;5055;52.054;8.524;2023-04-07T12:28:48;0.30;;;0.30;;
10029;SDS011;5055;52.054;8.524;2023-04-07T12:31:16;0.30;;;0.30;;
10029;SDS011;5055;52.054;8.524;2023-04-07T12:33:46;0.20;;;0.20;;
10029;SDS011;5055;52.054;8.524;2023-04-07T12:36:15;0.30;;;0.30;;
10029;SDS011;5055;52.054;8.524;2023-04-07T12:38:44;0.30;;;0.30;;
10029;SDS011;5055;52.054;8.524;2023-04-07T12:41:12;0.20;;;0.20;;
10029;SDS011;5055;52.054;8.524;2023-04-07T12:43:40;0.20;;;0.20;;
10029;SDS011;5055;52.054;8.524;2023-04-07T12:46:11;0.30;;;0.30;;
10029;SDS011;5055;52.054;8.524;2023-04-07T12:48:39;0.30;;;0.30;;
10029;SDS011;5055;52.054;8.524;2023-04-07T12:51:09;0.40;;;0.40;;
10029;SDS011;5055;52.054;8.524;2023-04-07T12:53:37;0.20;;;0.20;;
10029;SDS011;5055;52.054;8.524;2023-04-07T12:56:05;0.20;;;0.20;;
10029;SDS011;5055;52.054;8.524;2023-04-07T12:58:33;0.20;;;0.20;;
10029;SDS011;5055;52.054;8.524;2023-04-07T13:01:01;0.30;;;0.30;;
10029;SDS011;5055;52.054;8.524;2023-04-07T13:03:29;0.20;;;0.20;;
10029;SDS011;5055;52.054;8.524;2023-04-07T13:05:58;0.20;;;0.20;;
10029;SDS011;5055;52.054;8.524;2023-04-07T13:08:28;0.30;;;0.30;;
10029;SDS011;5055;52.054;8.524;2023-04-07T13:10:56;0.20;;;0.20;;
10029;SDS011;5055;52.054;8.524;2023-04-07T13:13:24;0.20;;;0.20;;
10029;SDS011;5055;52.054;8.524;2023-04-07T13:15:52;0.30;;;0.30;;
10029;SDS011;5055;52.054;8.524;2023-04-07T13:18:20;0.30;;;0.30;;
10029;SDS011;5055;52.054;8.524;2023-04-07T13:20:48;0.20;;;0.20;;
10029;SDS011;5055;52.054;8.524;2023-04-07T13:23:38;0.20;;;0.20;;
10029;SDS011;5055;52.054;8.524;2023-04-07T13:26:09;0.20;;;0.20;;
10029;SDS011;5055;52.054;8.524;2023-04-07T13:28:37;0.20;;;0.20;;
10029;SDS011;5055;52.054;8.524;2023-04-07T13:31:06;0.20;;;0.20;;
10029;SDS011;5055;52.054;8.524;2023-04-07T13:33:37;0.20;;;0.20;;
10029;SDS011;5055;52.054;8.524;2023-04-07T13:36:06;0.10;;;0.10;;
10029;SDS011;5055;52.054;8.524;2023-04-07T13:38:34;0.20;;;0.20;;
10029;SDS011;5055;52.054;8.524;2023-04-07T13:41:04;0.20;;;0.20;;
10029;SDS011;5055;52.054;8.524;2023-04-07T13:43:32;0.17;;;0.17;;
10029;SDS011;5055;52.054;8.524;2023-04-07T13:46:01;0.20;;;0.20;;
10029;SDS011;5055;52.054;8.524;2023-04-07T13:48:35;0.20;;;0.20;;
10029;SDS011;5055;52.054;8.524;2023-04-07T13:51:03;0.20;;;0.20;;
10029;SDS011;5055;52.054;8.524;2023-04-07T13:53:31;0.20;;;0.20;;
10029;SDS011;5055;52.054;8.524;2023-04-07T13:55:59;0.20;;;0.20;;
10029;SDS011;5055;52.054;8.524;2023-04-07T13:58:30;0.20;;;0.20;;
10029;SDS011;5055;52.054;8.524;2023-04-07T14:00:58;0.20;;;0.20;;
10029;SDS011;5055;52.054;8.524;2023-04-07T14:03:27;0.10;;;0.10;;
10029;SDS011;5055;52.054;8.524;2023-04-07T14:06:00;0.20;;;0.20;;
10029;SDS011;5055;52.054;8.524;2023-04-07T14:08:29;0.10;;;0.10;;
10029;SDS011;5055;52.054;8.524;2023-04-07T14:10:58;0.10;;;0.10;;
10029;SDS011;5055;52.054;8.524;2023-04-07T14:13:26;0.10;;;0.10;;
10029;SDS011;5055;52.054;8.524;2023-04-07T14:15:55;0.10;;;0.10;;
10029;SDS011;5055;52.054;8.524;2023-04-07T14:18:24;0.20;;;0.20;;
10029;SDS011;5055;52.054;8.524;2023-04-07T14:20:53;0.10;;;0.10;;
10029;SDS011;5055;52.054;8.524;2023-04-07T14:23:21;0.20;;;0.20;;
10029;SDS011;5055;52.054;8.524;2023-04-07T14:26:02;0.10;;;0.10;;
10029;SDS011;5055;52.054;8.524;2023-04-07T14:28:30;0.20;;;0.20;;
10029;SDS011;5055;52.054;8.524;2023-04-07T14:31:00;0.10;;;0.10;;
10029;SDS011;5055;52.054;8.524;2023-04-07T14:33:28;0.20;;;0.20;;
10029;SDS011;5055;52.054;8.524;2023-04-07T14:35:56;0.10;;;0.10;;
10029;SDS011;5055;52.054;8.524;2023-04-07T14:38:24;0.10;;;0.10;;
10029;SDS011;5055;52.054;8.524;2023-04-07T14:40:52;0.10;;;0.10;;
10029;SDS011;5055;52.054;8.524;2023-04-07T14:43:21;0.10;;;0.10;;
10029;SDS011;5055;52.054;8.524;2023-04-07T14:45:49;0.10;;;0.10;;
10029;SDS011;5055;52.054;8.524;2023-04-07T14:48:18;0.10;;;0.10;;
10029;SDS011;5055;52.054;8.524;2023-04-07T14:50:47;0.10;;;0.10;;
10029;SDS011;5055;52.054;8.524;2023-04-07T14:53:31;0.10;;;0.10;;
10029;SDS011;5055;52.054;8.524;2023-04-07T14:56:02;0.10;;;0.10;;
10029;SDS011;5055;52.054;8.524;2023-04-07T14:58:31;0.10;;;0.10;;
10029;SDS011;5055;52.054;8.524;2023-04-07T15:01:02;0.10;;;0.10;;
10029;SDS011;5055;52.054;8.524;2023-04-07T15:03:33;0.10;;;0.10;;
10029;SDS011;5055;52.054;8.524;2023-04-07T15:06:05;0.10;;;0.10;;
10029;SDS011;5055;52.054;8.524;2023-04-07T15:08:35;0.10;;;0.10;;
10029;SDS011;5055;52.054;8.524;2023-04-07T15:11:03;0.10;;;0.10;;
10029;SDS011;5055;52.054;8.524;2023-04-07T15:13:32;0.10;;;0.10;;
10029;SDS011;5055;52.054;8.524;2023-04-07T15:16:07;0.10;;;0.10;;
10029;SDS011;5055;52.054;8.524;2023-04-07T15:18:38;0.10;;;0.10;;
10029;SDS011;5055;52.054;8.524;2023-04-07T15:21:08;0.10;;;0.10;;
10029;SDS011;5055;52.054;8.524;2023-04-07T15:23:36;0.10;;;0.10;;
10029;SDS011;5055;52.054;8.524;2023-04-07T15:26:07;0.10;;;0.10;;